sensor_id;sensor_type;location;lat;lon;timestamp;pressure;altitude;pressure_sealevel;temperature;humidity
43711;BME280;29309;42.682;23.372;2022-08-02T00:02:18;95055.19;;;19.60;57.65
43711;BME280;29309;42.682;23.372;2022-08-02T00:04:44;95062.13;;;19.53;57.99
43711;BME280;29309;42.682;23.372;2022-08-02T00:07:09;95055.13;;;19.56;57.84
43711;BME280;29309;42.682;23.372;2022-08-02T00:09:34;95062.03;;;19.45;58.20
43711;BME280;29309;42.682;23.372;2022-08-02T00:12:00;95057.78;;;19.44;57.92
43711;BME280;29309;42.682;23.372;2022-08-02T00:14:25;95065.22;;;19.25;58.33
43711;BME280;29309;42.682;23.372;2022-08-02T00:16:51;95057.44;;;19.22;58.40
43711;BME280;29309;42.682;23.372;2022-08-02T00:19:16;95063.00;;;19.17;58.90
43711;BME280;29309;42.682;23.372;2022-08-02T00:21:42;95055.91;;;19.12;58.90
43711;BME280;29309;42.682;23.372;2022-08-02T00:24:08;95052.91;;;19.00;58.92
43711;BME280;29309;42.682;23.372;2022-08-02T00:26:33;95059.91;;;18.99;59.01
43711;BME280;29309;42.682;23.372;2022-08-02T00:28:59;95058.38;;;18.90;59.31
43711;BME280;29309;42.682;23.372;2022-08-02T00:31:24;95058.97;;;18.83;58.94
43711;BME280;29309;42.682;23.372;2022-08-02T00:33:50;95059.63;;;18.81;59.19
43711;BME280;29309;42.682;23.372;2022-08-02T00:36:16;95060.25;;;18.76;59.21
43711;BME280;29309;42.682;23.372;2022-08-02T00:38:41;95056.16;;;18.83;58.89
43711;BME280;29309;42.682;23.372;2022-08-02T00:41:15;95056.72;;;18.75;58.40
43711;BME280;29309;42.682;23.372;2022-08-02T00:43:42;95051.00;;;18.69;58.72
43711;BME280;29309;42.682;23.372;2022-08-02T00:46:07;95052.44;;;18.70;58.52
43711;BME280;29309;42.682;23.372;2022-08-02T00:48:33;95052.78;;;18.50;59.34
43711;BME280;29309;42.682;23.372;2022-08-02T00:50:59;95054.16;;;18.49;59.30
43711;BME280;29309;42.682;23.372;2022-08-02T00:53:24;95054.84;;;18.48;59.50
43711;BME280;29309;42.682;23.372;2022-08-02T00:55:50;95052.44;;;18.32;60.37
43711;BME280;29309;42.682;23.372;2022-08-02T00:58:15;95053.63;;;18.19;60.74
43711;BME280;29309;42.682;23.372;2022-08-02T01:00:41;95057.75;;;18.14;60.57
43711;BME280;29309;42.682;23.372;2022-08-02T01:03:06;95056.88;;;18.05;61.00
43711;BME280;29309;42.682;23.372;2022-08-02T01:05:31;95054.66;;;18.00;61.21
43711;BME280;29309;42.682;23.372;2022-08-02T01:07:57;95058.13;;;17.98;61.62
43711;BME280;29309;42.682;23.372;2022-08-02T01:10:23;95056.59;;;17.91;61.72
43711;BME280;29309;42.682;23.372;2022-08-02T01:12:48;95057.75;;;17.78;61.42
43711;BME280;29309;42.682;23.372;2022-08-02T01:15:16;95061.94;;;17.77;62.10
43711;BME280;29309;42.682;23.372;2022-08-02T01:20:55;95060.38;;;17.70;62.53
43711;BME280;29309;42.682;23.372;2022-08-02T01:26:59;95054.88;;;17.76;62.13
43711;BME280;29309;42.682;23.372;2022-08-02T01:29:29;95059.09;;;17.75;62.31
43711;BME280;29309;42.682;23.372;2022-08-02T01:32:12;95057.13;;;17.82;61.59
43711;BME280;29309;42.682;23.372;2022-08-02T01:34:57;95049.97;;;17.75;61.51
43711;BME280;29309;42.682;23.372;2022-08-02T01:40:15;95059.72;;;17.72;61.97
43711;BME280;29309;42.682;23.372;2022-08-02T01:42:46;95059.00;;;17.71;61.64
43711;BME280;29309;42.682;23.372;2022-08-02T01:45:13;95059.56;;;17.63;62.30
43711;BME280;29309;42.682;23.372;2022-08-02T01:47:41;95062.41;;;17.65;62.35
43711;BME280;29309;42.682;23.372;2022-08-02T01:50:12;95053.41;;;17.71;61.45
43711;BME280;29309;42.682;23.372;2022-08-02T01:52:44;95062.97;;;17.58;62.18
43711;BME280;29309;42.682;23.372;2022-08-02T01:55:18;95050.22;;;17.55;62.75
43711;BME280;29309;42.682;23.372;2022-08-02T01:57:49;95055.81;;;17.53;62.82
43711;BME280;29309;42.682;23.372;2022-08-02T02:00:18;95061.22;;;17.43;63.23
43711;BME280;29309;42.682;23.372;2022-08-02T02:02:47;95064.75;;;17.45;63.65
43711;BME280;29309;42.682;23.372;2022-08-02T02:05:16;95060.59;;;17.46;63.28
43711;BME280;29309;42.682;23.372;2022-08-02T02:07:43;95062.75;;;17.50;63.08
43711;BME280;29309;42.682;23.372;2022-08-02T02:10:17;95057.69;;;17.42;63.33
43711;BME280;29309;42.682;23.372;2022-08-02T02:12:45;95058.22;;;17.35;63.52
43711;BME280;29309;42.682;23.372;2022-08-02T02:15:12;95053.31;;;17.35;63.81
43711;BME280;29309;42.682;23.372;2022-08-02T02:17:41;95062.66;;;17.46;63.60
43711;BME280;29309;42.682;23.372;2022-08-02T02:20:08;95049.69;;;17.60;62.75
43711;BME280;29309;42.682;23.372;2022-08-02T02:22:37;95052.69;;;17.70;62.47
43711;BME280;29309;42.682;23.372;2022-08-02T02:25:03;95057.66;;;17.74;61.78
43711;BME280;29309;42.682;23.372;2022-08-02T02:27:29;95060.59;;;17.80;61.26
43711;BME280;29309;42.682;23.372;2022-08-02T02:29:55;95063.66;;;17.58;61.78
43711;BME280;29309;42.682;23.372;2022-08-02T02:32:22;95061.25;;;17.45;62.75
43711;BME280;29309;42.682;23.372;2022-08-02T02:34:50;95051.28;;;17.38;63.66
43711;BME280;29309;42.682;23.372;2022-08-02T02:37:21;95060.53;;;17.44;63.20
43711;BME280;29309;42.682;23.372;2022-08-02T02:39:49;95056.78;;;17.34;63.62
43711;BME280;29309;42.682;23.372;2022-08-02T02:42:17;95066.59;;;17.33;63.80
43711;BME280;29309;42.682;23.372;2022-08-02T02:44:45;95066.56;;;17.31;64.38
43711;BME280;29309;42.682;23.372;2022-08-02T02:47:14;95060.94;;;17.31;64.39
43711;BME280;29309;42.682;23.372;2022-08-02T02:49:42;95057.69;;;17.42;63.85
43711;BME280;29309;42.682;23.372;2022-08-02T02:52:09;95051.53;;;17.50;63.14
43711;BME280;29309;42.682;23.372;2022-08-02T02:54:38;95054.13;;;17.40;63.17
43711;BME280;29309;42.682;23.372;2022-08-02T02:57:05;95056.78;;;17.34;63.94
43711;BME280;29309;42.682;23.372;2022-08-02T02:59:33;95060.28;;;17.32;63.93
43711;BME280;29309;42.682;23.372;2022-08-02T03:01:58;95057.50;;;17.34;63.33
43711;BME280;29309;42.682;23.372;2022-08-02T03:04:27;95067.22;;;17.29;63.38
43711;BME280;29309;42.682;23.372;2022-08-02T03:06:52;95060.94;;;17.31;63.00
43711;BME280;29309;42.682;23.372;2022-08-02T03:09:18;95062.31;;;17.30;63.36
43711;BME280;29309;42.682;23.372;2022-08-02T03:11:44;95059.47;;;17.28;63.14
43711;BME280;29309;42.682;23.372;2022-08-02T03:14:10;95062.47;;;17.36;63.58
43711;BME280;29309;42.682;23.372;2022-08-02T03:16:45;95074.25;;;17.30;63.51
43711;BME280;29309;42.682;23.372;2022-08-02T03:19:11;95065.03;;;17.26;63.42
43711;BME280;29309;42.682;23.372;2022-08-02T03:21:37;95065.13;;;17.30;63.84
43711;BME280;29309;42.682;23.372;2022-08-02T03:24:03;95063.66;;;17.27;64.19
43711;BME280;29309;42.682;23.372;2022-08-02T03:26:29;95063.22;;;17.38;63.71
43711;BME280;29309;42.682;23.372;2022-08-02T03:28:54;95066.53;;;17.29;64.31
43711;BME280;29309;42.682;23.372;2022-08-02T03:31:20;95066.44;;;17.25;64.27
43711;BME280;29309;42.682;23.372;2022-08-02T03:33:45;95065.63;;;17.20;65.34
43711;BME280;29309;42.682;23.372;2022-08-02T03:36:14;95075.16;;;17.39;64.82
43711;BME280;29309;42.682;23.372;2022-08-02T03:38:41;95061.97;;;17.45;64.34
43711;BME280;29309;42.682;23.372;2022-08-02T03:41:10;95063.72;;;17.60;64.25
43711;BME280;29309;42.682;23.372;2022-08-02T03:43:37;95064.63;;;17.71;64.29
43711;BME280;29309;42.682;23.372;2022-08-02T03:46:03;95067.13;;;17.91;63.51
43711;BME280;29309;42.682;23.372;2022-08-02T03:48:30;95068.91;;;18.10;62.71
43711;BME280;29309;42.682;23.372;2022-08-02T03:50:55;95069.84;;;18.23;62.27
43711;BME280;29309;42.682;23.372;2022-08-02T03:53:22;95068.66;;;18.34;61.77
43711;BME280;29309;42.682;23.372;2022-08-02T03:55:48;95078.72;;;18.47;61.40
43711;BME280;29309;42.682;23.372;2022-08-02T03:58:22;95079.00;;;18.63;59.87
43711;BME280;29309;42.682;23.372;2022-08-02T04:00:48;95076.47;;;18.77;59.68
43711;BME280;29309;42.682;23.372;2022-08-02T04:03:14;95082.41;;;18.99;59.13
43711;BME280;29309;42.682;23.372;2022-08-02T04:05:40;95094.81;;;19.26;58.42
43711;BME280;29309;42.682;23.372;2022-08-02T04:08:06;95099.91;;;19.40;57.94
43711;BME280;29309;42.682;23.372;2022-08-02T04:10:31;95094.69;;;19.66;56.20
43711;BME280;29309;42.682;23.372;2022-08-02T04:13:18;95106.81;;;19.79;56.10
43711;BME280;29309;42.682;23.372;2022-08-02T04:15:45;95109.09;;;19.90;56.20
43711;BME280;29309;42.682;23.372;2022-08-02T04:18:14;95101.50;;;20.03;56.09
43711;BME280;29309;42.682;23.372;2022-08-02T04:20:42;95106.84;;;20.37;55.52
43711;BME280;29309;42.682;23.372;2022-08-02T04:23:10;95105.59;;;20.52;54.28
43711;BME280;29309;42.682;23.372;2022-08-02T04:25:39;95101.59;;;20.75;51.74
43711;BME280;29309;42.682;23.372;2022-08-02T04:28:05;95104.50;;;20.83;50.91
43711;BME280;29309;42.682;23.372;2022-08-02T04:30:32;95101.75;;;20.95;50.66
43711;BME280;29309;42.682;23.372;2022-08-02T04:32:58;95086.97;;;20.97;50.24
43711;BME280;29309;42.682;23.372;2022-08-02T04:35:24;95102.56;;;21.04;50.10
43711;BME280;29309;42.682;23.372;2022-08-02T04:37:51;95103.16;;;20.90;50.36
43711;BME280;29309;42.682;23.372;2022-08-02T04:40:16;95108.03;;;20.86;50.87
43711;BME280;29309;42.682;23.372;2022-08-02T04:42:42;95102.41;;;20.88;49.53
43711;BME280;29309;42.682;23.372;2022-08-02T04:45:08;95099.41;;;20.68;49.98
43711;BME280;29309;42.682;23.372;2022-08-02T04:47:35;95108.31;;;20.40;50.71
43711;BME280;29309;42.682;23.372;2022-08-02T04:50:00;95116.66;;;20.32;51.16
43711;BME280;29309;42.682;23.372;2022-08-02T04:52:26;95110.97;;;20.28;51.34
43711;BME280;29309;42.682;23.372;2022-08-02T04:54:52;95113.72;;;20.22;52.04
43711;BME280;29309;42.682;23.372;2022-08-02T04:57:21;95116.50;;;20.20;52.32
43711;BME280;29309;42.682;23.372;2022-08-02T05:00:06;95107.31;;;20.19;52.51
43711;BME280;29309;42.682;23.372;2022-08-02T05:02:33;95103.56;;;20.00;52.94
43711;BME280;29309;42.682;23.372;2022-08-02T05:04:58;95099.97;;;19.92;53.15
43711;BME280;29309;42.682;23.372;2022-08-02T05:07:24;95106.25;;;19.90;53.04
43711;BME280;29309;42.682;23.372;2022-08-02T05:09:49;95110.38;;;19.81;53.69
43711;BME280;29309;42.682;23.372;2022-08-02T05:12:15;95111.00;;;19.76;53.87
43711;BME280;29309;42.682;23.372;2022-08-02T05:14:40;95118.00;;;19.73;54.85
43711;BME280;29309;42.682;23.372;2022-08-02T05:17:06;95117.53;;;19.88;54.14
43711;BME280;29309;42.682;23.372;2022-08-02T05:19:31;95118.91;;;19.85;54.50
43711;BME280;29309;42.682;23.372;2022-08-02T05:21:57;95122.28;;;19.76;54.82
43711;BME280;29309;42.682;23.372;2022-08-02T05:24:22;95122.31;;;19.78;54.61
43711;BME280;29309;42.682;23.372;2022-08-02T05:26:48;95108.22;;;19.78;54.86
43711;BME280;29309;42.682;23.372;2022-08-02T05:29:14;95124.25;;;19.65;54.91
43711;BME280;29309;42.682;23.372;2022-08-02T05:31:43;95122.66;;;19.54;55.04
43711;BME280;29309;42.682;23.372;2022-08-02T05:34:10;95122.06;;;19.59;55.47
43711;BME280;29309;42.682;23.372;2022-08-02T05:36:35;95120.03;;;19.64;55.31
43711;BME280;29309;42.682;23.372;2022-08-02T05:39:01;95124.31;;;19.69;55.25
43711;BME280;29309;42.682;23.372;2022-08-02T05:41:26;95124.44;;;19.79;55.00
43711;BME280;29309;42.682;23.372;2022-08-02T05:43:52;95131.53;;;19.82;54.59
43711;BME280;29309;42.682;23.372;2022-08-02T05:46:17;95135.84;;;19.89;54.11
43711;BME280;29309;42.682;23.372;2022-08-02T05:48:43;95135.88;;;19.91;54.03
43711;BME280;29309;42.682;23.372;2022-08-02T05:51:21;95134.44;;;19.90;54.35
43711;BME280;29309;42.682;23.372;2022-08-02T05:53:53;95140.13;;;19.92;54.46
43711;BME280;29309;42.682;23.372;2022-08-02T05:56:24;95135.22;;;19.97;54.51
43711;BME280;29309;42.682;23.372;2022-08-02T05:59:03;95133.28;;;20.07;54.47
43711;BME280;29309;42.682;23.372;2022-08-02T06:01:34;95146.16;;;20.27;53.26
43711;BME280;29309;42.682;23.372;2022-08-02T06:04:08;95136.44;;;20.36;53.36
43711;BME280;29309;42.682;23.372;2022-08-02T06:06:35;95139.31;;;20.40;53.13
43711;BME280;29309;42.682;23.372;2022-08-02T06:09:08;95140.88;;;20.55;53.33
43711;BME280;29309;42.682;23.372;2022-08-02T06:11:45;95141.28;;;20.93;52.40
43711;BME280;29309;42.682;23.372;2022-08-02T06:14:11;95150.13;;;21.36;51.56
43711;BME280;29309;42.682;23.372;2022-08-02T06:16:38;95148.41;;;21.91;49.30
43711;BME280;29309;42.682;23.372;2022-08-02T06:19:03;95150.06;;;22.54;48.52
43711;BME280;29309;42.682;23.372;2022-08-02T06:21:30;95147.41;;;23.25;46.80
43711;BME280;29309;42.682;23.372;2022-08-02T06:23:57;95152.34;;;23.89;45.27
43711;BME280;29309;42.682;23.372;2022-08-02T06:26:23;95144.41;;;24.40;44.23
43711;BME280;29309;42.682;23.372;2022-08-02T06:28:51;95143.38;;;25.01;42.31
43711;BME280;29309;42.682;23.372;2022-08-02T06:31:18;95153.66;;;25.55;40.99
43711;BME280;29309;42.682;23.372;2022-08-02T06:33:44;95147.47;;;26.05;39.71
43711;BME280;29309;42.682;23.372;2022-08-02T06:39:02;95161.22;;;27.07;37.61
43711;BME280;29309;42.682;23.372;2022-08-02T06:41:39;95167.19;;;27.35;36.70
43711;BME280;29309;42.682;23.372;2022-08-02T06:44:08;95157.53;;;27.63;35.55
43711;BME280;29309;42.682;23.372;2022-08-02T06:46:34;95153.91;;;27.67;35.76
43711;BME280;29309;42.682;23.372;2022-08-02T06:49:03;95152.47;;;28.07;34.15
43711;BME280;29309;42.682;23.372;2022-08-02T06:51:29;95146.03;;;28.45;32.77
43711;BME280;29309;42.682;23.372;2022-08-02T06:53:55;95143.91;;;28.80;32.50
43711;BME280;29309;42.682;23.372;2022-08-02T06:56:21;95145.16;;;29.20;32.57
43711;BME280;29309;42.682;23.372;2022-08-02T06:58:46;95143.63;;;29.25;31.44
43711;BME280;29309;42.682;23.372;2022-08-02T07:01:12;95152.34;;;29.50;30.99
43711;BME280;29309;42.682;23.372;2022-08-02T07:03:44;95141.06;;;29.73;30.96
43711;BME280;29309;42.682;23.372;2022-08-02T07:06:13;95147.72;;;29.92;30.05
43711;BME280;29309;42.682;23.372;2022-08-02T07:08:38;95144.13;;;30.20;29.62
43711;BME280;29309;42.682;23.372;2022-08-02T07:11:08;95147.03;;;30.18;29.40
43711;BME280;29309;42.682;23.372;2022-08-02T07:13:35;95132.97;;;30.35;28.85
43711;BME280;29309;42.682;23.372;2022-08-02T07:16:01;95145.72;;;30.42;29.10
43711;BME280;29309;42.682;23.372;2022-08-02T07:18:27;95135.34;;;30.53;29.18
43711;BME280;29309;42.682;23.372;2022-08-02T07:20:53;95149.63;;;30.55;29.07
43711;BME280;29309;42.682;23.372;2022-08-02T07:23:18;95138.81;;;30.83;29.01
43711;BME280;29309;42.682;23.372;2022-08-02T07:25:44;95142.50;;;31.04;28.35
43711;BME280;29309;42.682;23.372;2022-08-02T07:28:11;95139.56;;;31.06;29.52
43711;BME280;29309;42.682;23.372;2022-08-02T07:30:37;95132.84;;;30.91;29.44
43711;BME280;29309;42.682;23.372;2022-08-02T07:33:03;95135.19;;;31.09;28.79
43711;BME280;29309;42.682;23.372;2022-08-02T07:35:29;95134.09;;;31.20;28.72
43711;BME280;29309;42.682;23.372;2022-08-02T07:37:55;95123.97;;;31.23;28.77
43711;BME280;29309;42.682;23.372;2022-08-02T07:40:21;95133.78;;;31.31;28.09
43711;BME280;29309;42.682;23.372;2022-08-02T07:42:52;95134.38;;;31.58;29.46
43711;BME280;29309;42.682;23.372;2022-08-02T07:45:21;95125.78;;;31.79;26.66
43711;BME280;29309;42.682;23.372;2022-08-02T07:47:48;95132.66;;;31.88;27.03
43711;BME280;29309;42.682;23.372;2022-08-02T07:50:16;95134.34;;;32.01;26.83
43711;BME280;29309;42.682;23.372;2022-08-02T07:52:43;95140.66;;;32.06;26.82
43711;BME280;29309;42.682;23.372;2022-08-02T07:55:10;95134.22;;;32.26;26.57
43711;BME280;29309;42.682;23.372;2022-08-02T07:57:36;95133.63;;;32.42;25.87
43711;BME280;29309;42.682;23.372;2022-08-02T08:00:04;95130.56;;;32.28;25.79
43711;BME280;29309;42.682;23.372;2022-08-02T08:02:30;95133.31;;;32.32;26.23
43711;BME280;29309;42.682;23.372;2022-08-02T08:04:56;95135.41;;;32.12;26.57
43711;BME280;29309;42.682;23.372;2022-08-02T08:07:21;95128.75;;;32.18;25.72
43711;BME280;29309;42.682;23.372;2022-08-02T08:09:47;95138.78;;;32.19;26.55
43711;BME280;29309;42.682;23.372;2022-08-02T08:12:15;95130.09;;;32.21;26.19
43711;BME280;29309;42.682;23.372;2022-08-02T08:14:41;95140.16;;;32.20;26.51
43711;BME280;29309;42.682;23.372;2022-08-02T08:17:06;95134.19;;;32.05;26.04
43711;BME280;29309;42.682;23.372;2022-08-02T08:19:33;95133.19;;;32.15;26.76
43711;BME280;29309;42.682;23.372;2022-08-02T08:21:58;95139.13;;;32.09;26.88
43711;BME280;29309;42.682;23.372;2022-08-02T08:24:25;95120.91;;;32.16;25.86
43711;BME280;29309;42.682;23.372;2022-08-02T08:26:51;95131.41;;;32.24;25.26
43711;BME280;29309;42.682;23.372;2022-08-02T08:29:16;95124.59;;;32.54;25.61
43711;BME280;29309;42.682;23.372;2022-08-02T08:31:42;95121.63;;;32.56;25.80
43711;BME280;29309;42.682;23.372;2022-08-02T08:34:07;95120.53;;;32.47;25.34
43711;BME280;29309;42.682;23.372;2022-08-02T08:36:33;95126.28;;;32.47;25.78
43711;BME280;29309;42.682;23.372;2022-08-02T08:38:58;95113.47;;;32.24;25.90
43711;BME280;29309;42.682;23.372;2022-08-02T08:41:24;95125.53;;;31.87;26.04
43711;BME280;29309;42.682;23.372;2022-08-02T08:43:50;95121.47;;;31.80;26.22
43711;BME280;29309;42.682;23.372;2022-08-02T08:46:36;95122.88;;;32.01;26.53
43711;BME280;29309;42.682;23.372;2022-08-02T08:49:05;95124.28;;;32.23;26.80
43711;BME280;29309;42.682;23.372;2022-08-02T08:51:41;95124.84;;;32.07;26.04
43711;BME280;29309;42.682;23.372;2022-08-02T08:54:14;95119.19;;;31.61;26.82
43711;BME280;29309;42.682;23.372;2022-08-02T08:56:41;95122.59;;;31.66;26.57
43711;BME280;29309;42.682;23.372;2022-08-02T08:59:07;95119.56;;;31.49;26.44
43711;BME280;29309;42.682;23.372;2022-08-02T09:01:33;95117.22;;;31.56;26.07
43711;BME280;29309;42.682;23.372;2022-08-02T09:03:59;95123.66;;;31.77;26.20
43711;BME280;29309;42.682;23.372;2022-08-02T09:06:25;95114.72;;;32.29;25.67
43711;BME280;29309;42.682;23.372;2022-08-02T09:08:51;95108.78;;;32.14;26.57
43711;BME280;29309;42.682;23.372;2022-08-02T09:11:19;95110.19;;;32.15;26.71
43711;BME280;29309;42.682;23.372;2022-08-02T09:13:54;95117.81;;;32.02;26.77
43711;BME280;29309;42.682;23.372;2022-08-02T09:16:39;95111.66;;;32.14;26.73
43711;BME280;29309;42.682;23.372;2022-08-02T09:19:19;95120.50;;;32.08;26.91
43711;BME280;29309;42.682;23.372;2022-08-02T09:21:47;95110.78;;;32.38;26.85
43711;BME280;29309;42.682;23.372;2022-08-02T09:24:21;95112.34;;;32.35;25.59
43711;BME280;29309;42.682;23.372;2022-08-02T09:26:48;95106.38;;;32.41;25.51
43711;BME280;29309;42.682;23.372;2022-08-02T09:29:15;95109.25;;;32.41;25.87
43711;BME280;29309;42.682;23.372;2022-08-02T09:31:41;95114.69;;;32.49;26.07
43711;BME280;29309;42.682;23.372;2022-08-02T09:34:08;95107.47;;;32.90;26.39
43711;BME280;29309;42.682;23.372;2022-08-02T09:36:42;95108.47;;;33.20;25.48
43711;BME280;29309;42.682;23.372;2022-08-02T09:39:09;95109.25;;;32.41;25.25
43711;BME280;29309;42.682;23.372;2022-08-02T09:41:38;95102.81;;;31.99;26.90
43711;BME280;29309;42.682;23.372;2022-08-02T09:44:23;95110.66;;;31.80;25.69
43711;BME280;29309;42.682;23.372;2022-08-02T09:46:55;95098.66;;;31.30;27.16
43711;BME280;29309;42.682;23.372;2022-08-02T09:49:20;95093.31;;;31.18;28.71
43711;BME280;29309;42.682;23.372;2022-08-02T09:54:21;95092.72;;;31.36;27.84
43711;BME280;29309;42.682;23.372;2022-08-02T09:56:50;95095.72;;;31.32;29.04
43711;BME280;29309;42.682;23.372;2022-08-02T09:59:18;95087.75;;;31.35;28.14
43711;BME280;29309;42.682;23.372;2022-08-02T10:01:45;95087.63;;;31.61;27.42
43711;BME280;29309;42.682;23.372;2022-08-02T10:04:13;95085.44;;;31.62;27.74
43711;BME280;29309;42.682;23.372;2022-08-02T10:06:40;95081.09;;;31.63;27.28
43711;BME280;29309;42.682;23.372;2022-08-02T10:09:08;95082.56;;;31.62;27.12
43711;BME280;29309;42.682;23.372;2022-08-02T10:11:34;95089.59;;;31.44;26.70
43711;BME280;29309;42.682;23.372;2022-08-02T10:14:04;95088.41;;;30.90;27.14
43711;BME280;29309;42.682;23.372;2022-08-02T10:16:33;95094.25;;;30.38;28.54
43711;BME280;29309;42.682;23.372;2022-08-02T10:18:59;95083.03;;;30.03;29.64
43711;BME280;29309;42.682;23.372;2022-08-02T10:21:28;95086.34;;;29.87;30.34
43711;BME280;29309;42.682;23.372;2022-08-02T10:24:03;95079.53;;;30.01;30.51
43711;BME280;29309;42.682;23.372;2022-08-02T10:26:31;95074.63;;;30.22;29.70
43711;BME280;29309;42.682;23.372;2022-08-02T10:28:57;95082.47;;;30.23;29.86
43711;BME280;29309;42.682;23.372;2022-08-02T10:31:26;95074.94;;;30.37;29.17
43711;BME280;29309;42.682;23.372;2022-08-02T10:33:53;95069.53;;;30.51;27.59
43711;BME280;29309;42.682;23.372;2022-08-02T10:36:21;95069.94;;;30.35;28.83
43711;BME280;29309;42.682;23.372;2022-08-02T10:38:48;95077.22;;;30.32;29.02
43711;BME280;29309;42.682;23.372;2022-08-02T10:41:14;95078.53;;;30.10;30.01
43711;BME280;29309;42.682;23.372;2022-08-02T10:43:45;95072.16;;;30.08;30.75
43711;BME280;29309;42.682;23.372;2022-08-02T10:54:24;95069.47;;;30.02;30.02
43711;BME280;29309;42.682;23.372;2022-08-02T10:56:53;95071.47;;;30.07;29.64
43711;BME280;29309;42.682;23.372;2022-08-02T10:59:32;95071.25;;;30.15;29.31
43711;BME280;29309;42.682;23.372;2022-08-02T11:02:01;95071.50;;;30.57;29.37
43711;BME280;29309;42.682;23.372;2022-08-02T11:07:19;95070.47;;;30.44;28.21
43711;BME280;29309;42.682;23.372;2022-08-02T11:09:46;95066.81;;;30.70;28.42
43711;BME280;29309;42.682;23.372;2022-08-02T11:12:14;95061.88;;;30.91;28.00
43711;BME280;29309;42.682;23.372;2022-08-02T11:14:42;95065.63;;;30.36;29.08
43711;BME280;29309;42.682;23.372;2022-08-02T11:17:15;95064.38;;;30.56;28.56
43711;BME280;29309;42.682;23.372;2022-08-02T11:22:35;95070.41;;;30.46;28.29
43711;BME280;29309;42.682;23.372;2022-08-02T11:27:54;95071.31;;;30.38;28.40
43711;BME280;29309;42.682;23.372;2022-08-02T11:30:26;95073.72;;;30.54;29.04
43711;BME280;29309;42.682;23.372;2022-08-02T11:32:57;95067.88;;;30.58;28.59
43711;BME280;29309;42.682;23.372;2022-08-02T11:35:31;95066.00;;;30.73;29.03
43711;BME280;29309;42.682;23.372;2022-08-02T11:38:39;95064.44;;;31.01;27.99
43711;BME280;29309;42.682;23.372;2022-08-02T11:40:48;95063.69;;;31.03;27.89
43711;BME280;29309;42.682;23.372;2022-08-02T11:43:19;95063.16;;;31.19;27.61
43711;BME280;29309;42.682;23.372;2022-08-02T11:45:46;95061.69;;;31.20;27.68
43711;BME280;29309;42.682;23.372;2022-08-02T11:48:12;95061.31;;;31.32;27.58
43711;BME280;29309;42.682;23.372;2022-08-02T11:50:37;95067.97;;;31.47;27.60
43711;BME280;29309;42.682;23.372;2022-08-02T11:53:12;95063.88;;;30.22;28.96
43711;BME280;29309;42.682;23.372;2022-08-02T11:55:44;95057.75;;;30.12;28.58
43711;BME280;29309;42.682;23.372;2022-08-02T11:58:10;95059.31;;;30.07;28.74
43711;BME280;29309;42.682;23.372;2022-08-02T12:00:38;95061.31;;;30.37;28.98
43711;BME280;29309;42.682;23.372;2022-08-02T12:03:05;95058.25;;;30.45;28.28
43711;BME280;29309;42.682;23.372;2022-08-02T12:05:30;95050.44;;;30.66;28.29
43711;BME280;29309;42.682;23.372;2022-08-02T12:07:59;95055.06;;;31.03;28.08
43711;BME280;29309;42.682;23.372;2022-08-02T12:10:27;95055.75;;;31.26;27.95
43711;BME280;29309;42.682;23.372;2022-08-02T12:12:58;95060.38;;;31.38;27.89
43711;BME280;29309;42.682;23.372;2022-08-02T12:15:36;95063.94;;;31.82;29.25
43711;BME280;29309;42.682;23.372;2022-08-02T12:18:03;95062.34;;;31.87;28.48
43711;BME280;29309;42.682;23.372;2022-08-02T12:20:51;95059.06;;;31.78;27.51
43711;BME280;29309;42.682;23.372;2022-08-02T12:23:17;95049.59;;;31.82;26.38
43711;BME280;29309;42.682;23.372;2022-08-02T12:25:42;95056.72;;;31.62;26.46
43711;BME280;29309;42.682;23.372;2022-08-02T12:28:22;95049.66;;;30.93;28.08
43711;BME280;29309;42.682;23.372;2022-08-02T12:30:57;95052.78;;;30.35;29.27
43711;BME280;29309;42.682;23.372;2022-08-02T12:33:26;95056.41;;;30.09;28.79
43711;BME280;29309;42.682;23.372;2022-08-02T12:35:52;95051.97;;;29.31;30.41
43711;BME280;29309;42.682;23.372;2022-08-02T12:38:18;95047.22;;;29.20;30.40
43711;BME280;29309;42.682;23.372;2022-08-02T12:40:44;95050.06;;;29.22;30.42
43711;BME280;29309;42.682;23.372;2022-08-02T12:43:20;95041.72;;;29.12;31.11
43711;BME280;29309;42.682;23.372;2022-08-02T12:45:52;95048.19;;;29.10;31.37
43711;BME280;29309;42.682;23.372;2022-08-02T12:48:33;95056.13;;;29.08;31.33
43711;BME280;29309;42.682;23.372;2022-08-02T12:53:48;95042.72;;;29.00;31.26
43711;BME280;29309;42.682;23.372;2022-08-02T12:56:26;95048.81;;;28.51;31.73
43711;BME280;29309;42.682;23.372;2022-08-02T12:58:51;95036.16;;;28.42;31.65
43711;BME280;29309;42.682;23.372;2022-08-02T13:01:21;95038.84;;;28.50;31.64
43711;BME280;29309;42.682;23.372;2022-08-02T13:03:48;95036.88;;;28.43;32.75
43711;BME280;29309;42.682;23.372;2022-08-02T13:06:13;95032.69;;;28.38;32.69
43711;BME280;29309;42.682;23.372;2022-08-02T13:08:42;95039.69;;;28.10;32.53
43711;BME280;29309;42.682;23.372;2022-08-02T13:11:08;95039.00;;;28.09;32.58
43711;BME280;29309;42.682;23.372;2022-08-02T13:13:33;95037.59;;;28.06;33.54
43711;BME280;29309;42.682;23.372;2022-08-02T13:15:59;95040.53;;;28.02;33.78
43711;BME280;29309;42.682;23.372;2022-08-02T13:18:25;95039.25;;;27.95;32.52
43711;BME280;29309;42.682;23.372;2022-08-02T13:20:53;95038.59;;;27.93;32.28
43711;BME280;29309;42.682;23.372;2022-08-02T13:23:34;95045.53;;;28.02;32.53
43711;BME280;29309;42.682;23.372;2022-08-02T13:26:04;95043.34;;;28.04;33.62
43711;BME280;29309;42.682;23.372;2022-08-02T13:28:29;95038.16;;;28.15;32.03
43711;BME280;29309;42.682;23.372;2022-08-02T13:30:55;95032.47;;;28.48;31.83